NSZ4091 ESSA-ESSV
Flight info
| Callsign | NSZ4091 |
|---|---|
| Flight time | 0h 28m |
| Altitude | 15000 |
| Route | BABAP T316 GOTAL |
| Aircraft | B738/M-SDE2E3GHIJ1LRWXY/LB1 |
Departure
| Time | 2026-04-26 17:50 |
|---|---|
| Airport | Stockholm-Arlanda Airport (ESSA) |
Arrival
| Time | 2026-04-26 18:18 |
|---|---|
| Airport | Visby Airport (ESSV) |
| Time | Latitude | Longitude | Altitude | Speed | Heading |
|---|---|---|---|---|---|
| 2026-04-26 16:23 | 59.65241 | 17.92990 | 111 ft | 0 kts | 71° |
| 2026-04-26 17:25 | 59.65239 | 17.92982 | 111 ft | 2 kts | 70° |
| 2026-04-26 17:25 | 59.65234 | 17.92951 | 111 ft | 2 kts | 70° |
| 2026-04-26 17:25 | 59.65228 | 17.92920 | 109 ft | 2 kts | 69° |
| 2026-04-26 17:26 | 59.65222 | 17.92889 | 109 ft | 2 kts | 73° |
| 2026-04-26 17:26 | 59.65219 | 17.92857 | 110 ft | 2 kts | 88° |
| 2026-04-26 17:26 | 59.65220 | 17.92824 | 108 ft | 2 kts | 100° |
| 2026-04-26 17:26 | 59.65223 | 17.92798 | 109 ft | 1 kts | 109° |
| 2026-04-26 17:27 | 59.65224 | 17.92795 | 109 ft | 0 kts | 110° |
| 2026-04-26 17:30 | 59.65223 | 17.92797 | 109 ft | 1 kts | 110° |
| 2026-04-26 17:30 | 59.65235 | 17.92825 | 108 ft | 4 kts | 21° |
| 2026-04-26 17:30 | 59.65264 | 17.92807 | 110 ft | 5 kts | 332° |
| 2026-04-26 17:31 | 59.65306 | 17.92763 | 111 ft | 8 kts | 332° |
| 2026-04-26 17:31 | 59.65360 | 17.92704 | 111 ft | 9 kts | 330° |
| 2026-04-26 17:31 | 59.65383 | 17.92599 | 110 ft | 9 kts | 258° |
| 2026-04-26 17:31 | 59.65340 | 17.92511 | 109 ft | 10 kts | 218° |
| 2026-04-26 17:32 | 59.65257 | 17.92419 | 110 ft | 18 kts | 202° |
| 2026-04-26 17:32 | 59.65118 | 17.92353 | 111 ft | 21 kts | 190° |
| 2026-04-26 17:32 | 59.64975 | 17.92302 | 111 ft | 21 kts | 190° |
| 2026-04-26 17:32 | 59.64836 | 17.92251 | 111 ft | 20 kts | 189° |
| 2026-04-26 17:33 | 59.64701 | 17.92202 | 111 ft | 19 kts | 191° |
| 2026-04-26 17:33 | 59.64573 | 17.92156 | 111 ft | 19 kts | 190° |
| 2026-04-26 17:33 | 59.64448 | 17.92111 | 110 ft | 18 kts | 190° |
| 2026-04-26 17:34 | 59.64331 | 17.91957 | 112 ft | 10 kts | 256° |
| 2026-04-26 17:34 | 59.64278 | 17.91883 | 112 ft | 10 kts | 190° |
| 2026-04-26 17:34 | 59.64199 | 17.91855 | 113 ft | 13 kts | 190° |
| 2026-04-26 17:34 | 59.64107 | 17.91822 | 113 ft | 13 kts | 190° |
| 2026-04-26 17:35 | 59.64019 | 17.91790 | 112 ft | 10 kts | 190° |
| 2026-04-26 17:35 | 59.63979 | 17.91775 | 111 ft | 4 kts | 190° |
| 2026-04-26 17:35 | 59.63966 | 17.91771 | 111 ft | 0 kts | 191° |
| 2026-04-26 17:39 | 59.63948 | 17.91764 | 110 ft | 6 kts | 191° |
| 2026-04-26 17:39 | 59.63900 | 17.91747 | 109 ft | 3 kts | 191° |
| 2026-04-26 17:42 | 59.63893 | 17.91744 | 109 ft | 4 kts | 191° |
| 2026-04-26 17:42 | 59.63856 | 17.91720 | 107 ft | 5 kts | 205° |
| 2026-04-26 17:42 | 59.63831 | 17.91689 | 105 ft | 4 kts | 218° |
| 2026-04-26 17:43 | 59.63819 | 17.91670 | 106 ft | 0 kts | 218° |
| 2026-04-26 17:47 | 59.63815 | 17.91662 | 107 ft | 3 kts | 220° |
| 2026-04-26 17:47 | 59.63802 | 17.91640 | 105 ft | 5 kts | 220° |
| 2026-04-26 17:47 | 59.63770 | 17.91587 | 105 ft | 5 kts | 221° |
| 2026-04-26 17:47 | 59.63746 | 17.91545 | 106 ft | 5 kts | 221° |
| 2026-04-26 17:48 | 59.63727 | 17.91481 | 107 ft | 6 kts | 257° |
| 2026-04-26 17:48 | 59.63727 | 17.91419 | 108 ft | 6 kts | 277° |
| 2026-04-26 17:48 | 59.63737 | 17.91351 | 109 ft | 4 kts | 302° |
| 2026-04-26 17:48 | 59.63762 | 17.91338 | 109 ft | 2 kts | 7° |
| 2026-04-26 17:49 | 59.63764 | 17.91339 | 109 ft | 1 kts | 8° |
| 2026-04-26 17:49 | 59.63881 | 17.91378 | 108 ft | 48 kts | 10° |
| 2026-04-26 17:49 | 59.64457 | 17.91587 | 108 ft | 117 kts | 10° |
| 2026-04-26 17:49 | 59.65430 | 17.91944 | 259 ft | 155 kts | 8° |
| 2026-04-26 17:50 | 59.66497 | 17.92325 | 1108 ft | 155 kts | 6° |
| 2026-04-26 17:50 | 59.67633 | 17.92686 | 1666 ft | 180 kts | 7° |
| 2026-04-26 17:50 | 59.68914 | 17.93197 | 2240 ft | 192 kts | 8° |
| 2026-04-26 17:50 | 59.70275 | 17.93691 | 3020 ft | 195 kts | 7° |
| 2026-04-26 17:51 | 59.71564 | 17.94147 | 3888 ft | 193 kts | 8° |
| 2026-04-26 17:51 | 59.72854 | 17.95093 | 4645 ft | 204 kts | 31° |
| 2026-04-26 17:51 | 59.73733 | 17.97426 | 5246 ft | 230 kts | 64° |
| 2026-04-26 17:51 | 59.74120 | 18.00752 | 5499 ft | 262 kts | 76° |
| 2026-04-26 17:52 | 59.74406 | 18.04399 | 6226 ft | 269 kts | 76° |
| 2026-04-26 17:52 | 59.74699 | 18.08031 | 7058 ft | 272 kts | 75° |
| 2026-04-26 17:52 | 59.75018 | 18.11802 | 7872 ft | 276 kts | 75° |
| 2026-04-26 17:52 | 59.75104 | 18.15608 | 8606 ft | 290 kts | 98° |
| 2026-04-26 17:53 | 59.74217 | 18.19247 | 9401 ft | 301 kts | 128° |
| 2026-04-26 17:53 | 59.72547 | 18.21918 | 10177 ft | 307 kts | 153° |
| 2026-04-26 17:53 | 59.70494 | 18.23380 | 10521 ft | 325 kts | 166° |
| 2026-04-26 17:54 | 59.65851 | 18.25400 | 11374 ft | 352 kts | 170° |
| 2026-04-26 17:54 | 59.63432 | 18.26369 | 12117 ft | 357 kts | 170° |
| 2026-04-26 17:54 | 59.60934 | 18.27390 | 12977 ft | 360 kts | 169° |
| 2026-04-26 17:54 | 59.58518 | 18.28401 | 13648 ft | 365 kts | 169° |
| 2026-04-26 17:55 | 59.56022 | 18.29465 | 14148 ft | 366 kts | 169° |
| 2026-04-26 17:55 | 59.53567 | 18.30525 | 14471 ft | 366 kts | 169° |
| 2026-04-26 17:55 | 59.51077 | 18.31608 | 14721 ft | 365 kts | 169° |
| 2026-04-26 17:55 | 59.48560 | 18.32706 | 14973 ft | 365 kts | 169° |
| 2026-04-26 17:56 | 59.46102 | 18.33778 | 15098 ft | 369 kts | 169° |
| 2026-04-26 17:56 | 59.41042 | 18.35983 | 15090 ft | 368 kts | 169° |
| 2026-04-26 17:57 | 59.36065 | 18.38146 | 15093 ft | 368 kts | 169° |
| 2026-04-26 17:57 | 59.33564 | 18.39230 | 15098 ft | 368 kts | 169° |
| 2026-04-26 17:57 | 59.31047 | 18.40319 | 15095 ft | 369 kts | 169° |
| 2026-04-26 17:57 | 59.28543 | 18.41401 | 15086 ft | 369 kts | 169° |
| 2026-04-26 17:58 | 59.20986 | 18.44657 | 15084 ft | 370 kts | 169° |
| 2026-04-26 17:59 | 59.16804 | 18.46453 | 15079 ft | 369 kts | 169° |
| 2026-04-26 17:59 | 59.14084 | 18.47619 | 15083 ft | 369 kts | 169° |
| 2026-04-26 17:59 | 59.11570 | 18.48694 | 15088 ft | 369 kts | 169° |
| 2026-04-26 17:59 | 59.09055 | 18.49769 | 15081 ft | 369 kts | 169° |
| 2026-04-26 18:00 | 59.06543 | 18.50840 | 15080 ft | 369 kts | 169° |
| 2026-04-26 18:00 | 59.04023 | 18.51913 | 15092 ft | 369 kts | 169° |
| 2026-04-26 18:00 | 59.01506 | 18.52985 | 15082 ft | 370 kts | 169° |
| 2026-04-26 18:00 | 58.98989 | 18.54054 | 15074 ft | 370 kts | 169° |
| 2026-04-26 18:01 | 58.96471 | 18.55120 | 15088 ft | 370 kts | 169° |
| 2026-04-26 18:01 | 58.93947 | 18.56146 | 15081 ft | 369 kts | 173° |
| 2026-04-26 18:01 | 58.91426 | 18.56515 | 15073 ft | 366 kts | 186° |
| 2026-04-26 18:01 | 58.88861 | 18.56182 | 15089 ft | 364 kts | 189° |
| 2026-04-26 18:02 | 58.86331 | 18.55832 | 15085 ft | 365 kts | 187° |
| 2026-04-26 18:02 | 58.84639 | 18.55661 | 15089 ft | 366 kts | 186° |
| 2026-04-26 18:02 | 58.81249 | 18.55372 | 15067 ft | 354 kts | 186° |
| 2026-04-26 18:02 | 58.78800 | 18.55172 | 15070 ft | 350 kts | 186° |
| 2026-04-26 18:03 | 58.76364 | 18.54964 | 15090 ft | 350 kts | 187° |
| 2026-04-26 18:03 | 58.73918 | 18.54746 | 15100 ft | 352 kts | 187° |
| 2026-04-26 18:03 | 58.71466 | 18.54521 | 14938 ft | 356 kts | 187° |
| 2026-04-26 18:03 | 58.68968 | 18.54288 | 14574 ft | 360 kts | 186° |
| 2026-04-26 18:04 | 58.66455 | 18.54054 | 14234 ft | 359 kts | 186° |
| 2026-04-26 18:04 | 58.63972 | 18.53825 | 13892 ft | 357 kts | 186° |
| 2026-04-26 18:04 | 58.61527 | 18.53599 | 13518 ft | 354 kts | 186° |
| 2026-04-26 18:05 | 58.56637 | 18.53147 | 12859 ft | 347 kts | 186° |
| 2026-04-26 18:05 | 58.54234 | 18.52925 | 12531 ft | 344 kts | 186° |
| 2026-04-26 18:05 | 58.51862 | 18.52705 | 12212 ft | 340 kts | 186° |
| 2026-04-26 18:05 | 58.49473 | 18.52483 | 11884 ft | 337 kts | 186° |
| 2026-04-26 18:06 | 58.47136 | 18.52266 | 11571 ft | 335 kts | 186° |
| 2026-04-26 18:06 | 58.44845 | 18.52053 | 11251 ft | 333 kts | 186° |
| 2026-04-26 18:06 | 58.42531 | 18.51839 | 10939 ft | 330 kts | 186° |
| 2026-04-26 18:06 | 58.40244 | 18.51628 | 10631 ft | 328 kts | 186° |
| 2026-04-26 18:07 | 58.37965 | 18.51417 | 10318 ft | 326 kts | 186° |
| 2026-04-26 18:07 | 58.35709 | 18.51209 | 10044 ft | 322 kts | 186° |
| 2026-04-26 18:07 | 58.33521 | 18.51012 | 10034 ft | 305 kts | 186° |
| 2026-04-26 18:07 | 58.32108 | 18.50884 | 9566 ft | 310 kts | 186° |
| 2026-04-26 18:08 | 58.29256 | 18.50617 | 9082 ft | 308 kts | 186° |
| 2026-04-26 18:08 | 58.27106 | 18.50418 | 8679 ft | 308 kts | 186° |
| 2026-04-26 18:08 | 58.24969 | 18.50221 | 8353 ft | 306 kts | 186° |
| 2026-04-26 18:08 | 58.22846 | 18.50027 | 8053 ft | 303 kts | 186° |
| 2026-04-26 18:09 | 58.20745 | 18.49835 | 7751 ft | 301 kts | 185° |
| 2026-04-26 18:09 | 58.18633 | 18.49642 | 7448 ft | 298 kts | 185° |
| 2026-04-26 18:09 | 58.16567 | 18.49453 | 7151 ft | 295 kts | 185° |
| 2026-04-26 18:09 | 58.14523 | 18.49266 | 6867 ft | 293 kts | 185° |
| 2026-04-26 18:10 | 58.12496 | 18.49082 | 6593 ft | 290 kts | 185° |
| 2026-04-26 18:10 | 58.10483 | 18.48900 | 6277 ft | 288 kts | 185° |
| 2026-04-26 18:10 | 58.08490 | 18.48719 | 5992 ft | 285 kts | 185° |
| 2026-04-26 18:10 | 58.06514 | 18.48541 | 5723 ft | 282 kts | 185° |
| 2026-04-26 18:11 | 58.04557 | 18.48363 | 5441 ft | 280 kts | 185° |
| 2026-04-26 18:11 | 58.02611 | 18.48187 | 5146 ft | 278 kts | 185° |
| 2026-04-26 18:11 | 58.00682 | 18.48013 | 4875 ft | 276 kts | 185° |
| 2026-04-26 18:11 | 57.98787 | 18.47842 | 4585 ft | 275 kts | 185° |
| 2026-04-26 18:12 | 57.96884 | 18.47670 | 4316 ft | 273 kts | 185° |
| 2026-04-26 18:12 | 57.94990 | 18.47499 | 4071 ft | 269 kts | 185° |
| 2026-04-26 18:12 | 57.93150 | 18.47335 | 3971 ft | 261 kts | 185° |
| 2026-04-26 18:12 | 57.91349 | 18.47173 | 3830 ft | 253 kts | 185° |
| 2026-04-26 18:13 | 57.89674 | 18.47023 | 3739 ft | 246 kts | 185° |
| 2026-04-26 18:13 | 57.87994 | 18.46872 | 3633 ft | 238 kts | 185° |
| 2026-04-26 18:13 | 57.86363 | 18.46727 | 3535 ft | 230 kts | 186° |
| 2026-04-26 18:13 | 57.85320 | 18.46634 | 3474 ft | 224 kts | 186° |
| 2026-04-26 18:14 | 57.83274 | 18.46446 | 3197 ft | 215 kts | 188° |
| 2026-04-26 18:14 | 57.81851 | 18.45850 | 2992 ft | 204 kts | 204° |
| 2026-04-26 18:14 | 57.80542 | 18.44930 | 2789 ft | 198 kts | 206° |
| 2026-04-26 18:14 | 57.79273 | 18.44004 | 2575 ft | 194 kts | 206° |
| 2026-04-26 18:15 | 57.78028 | 18.43101 | 2368 ft | 188 kts | 206° |
| 2026-04-26 18:15 | 57.76821 | 18.42228 | 2171 ft | 183 kts | 206° |
| 2026-04-26 18:15 | 57.75643 | 18.41380 | 2028 ft | 179 kts | 206° |
| 2026-04-26 18:15 | 57.74469 | 18.40532 | 1795 ft | 180 kts | 206° |
| 2026-04-26 18:16 | 57.73325 | 18.39708 | 1543 ft | 171 kts | 206° |
| 2026-04-26 18:16 | 57.71247 | 18.38213 | 1108 ft | 147 kts | 207° |
| 2026-04-26 18:16 | 57.70307 | 18.37532 | 871 ft | 141 kts | 206° |
| 2026-04-26 18:17 | 57.69405 | 18.36870 | 650 ft | 137 kts | 207° |
| 2026-04-26 18:17 | 57.68533 | 18.36250 | 479 ft | 132 kts | 206° |
| 2026-04-26 18:17 | 57.67683 | 18.35632 | 311 ft | 133 kts | 206° |
| 2026-04-26 18:17 | 57.66811 | 18.35010 | 156 ft | 128 kts | 205° |
| 2026-04-26 18:18 | 57.66304 | 18.34637 | 156 ft | 93 kts | 201° |
| 2026-04-26 18:18 | 57.65897 | 18.34347 | 156 ft | 30 kts | 201° |
| 2026-04-26 18:18 | 57.65721 | 18.34220 | 158 ft | 27 kts | 201° |
| 2026-04-26 18:18 | 57.65553 | 18.34101 | 158 ft | 25 kts | 201° |
| 2026-04-26 18:19 | 57.65473 | 18.34022 | 156 ft | 4 kts | 198° |
| 2026-04-26 18:19 | 57.65458 | 18.34045 | 156 ft | 1 kts | 88° |
| 2026-04-26 18:19 | 57.65468 | 18.34051 | 156 ft | 2 kts | 17° |
| 2026-04-26 18:19 | 57.65487 | 18.34061 | 156 ft | 5 kts | 17° |
| 2026-04-26 18:20 | 57.65543 | 18.34096 | 158 ft | 12 kts | 20° |
| 2026-04-26 18:20 | 57.65638 | 18.34162 | 158 ft | 16 kts | 21° |
| 2026-04-26 18:20 | 57.65746 | 18.34239 | 158 ft | 18 kts | 20° |
| 2026-04-26 18:20 | 57.65831 | 18.34302 | 156 ft | 21 kts | 22° |
| 2026-04-26 18:21 | 57.65959 | 18.34335 | 156 ft | 11 kts | 321° |
| 2026-04-26 18:21 | 57.65989 | 18.34211 | 158 ft | 10 kts | 291° |
| 2026-04-26 18:21 | 57.66008 | 18.34108 | 158 ft | 8 kts | 284° |
| 2026-04-26 18:21 | 57.65987 | 18.34024 | 158 ft | 5 kts | 217° |
| 2026-04-26 18:22 | 57.65975 | 18.33975 | 158 ft | 3 kts | 287° |
| 2026-04-26 18:22 | 57.65991 | 18.33948 | 158 ft | 3 kts | 331° |
| 2026-04-26 18:22 | 57.66008 | 18.33932 | 158 ft | 2 kts | 335° |
| 2026-04-26 18:22 | 57.66015 | 18.33926 | 158 ft | 0 kts | 335° |